createdAt,value
2023-04-16T17:41:39.754Z,14.80
2023-04-16T17:43:41.534Z,15.25
2023-04-16T17:45:43.081Z,16.10
2023-04-16T17:47:44.686Z,18.45
2023-04-16T17:49:46.446Z,21.08
2023-04-16T17:51:48.011Z,21.35
2023-04-16T17:53:49.562Z,26.15
2023-04-16T17:55:51.514Z,23.52
2023-04-16T17:57:54.403Z,26.98
2023-04-16T17:59:56.129Z,29.20
2023-04-16T18:01:57.796Z,28.88
2023-04-16T18:03:59.579Z,27.30
2023-04-16T18:06:01.299Z,28.55
2023-04-16T18:08:03.175Z,27.38
2023-04-16T18:10:05.625Z,27.98
2023-04-16T18:12:07.356Z,29.63
2023-04-16T18:14:10.558Z,29.08
2023-04-16T18:16:14.396Z,28.52
2023-04-16T18:18:16.010Z,28.70
2023-04-16T18:22:19.422Z,26.33
2023-04-16T18:24:20.930Z,30.83
2023-04-16T18:26:23.033Z,27.48
2023-04-16T18:28:24.751Z,27.55
2023-04-16T18:30:28.323Z,26.20
2023-04-16T18:32:31.256Z,24.77
2023-04-16T18:34:33.991Z,26.65
2023-04-16T18:36:35.506Z,27.70
2023-04-16T18:38:43.729Z,26.42
2023-04-16T18:40:55.426Z,25.33
2023-04-16T18:42:57.042Z,29.10
2023-04-16T18:47:02.546Z,22.73
2023-04-16T18:49:04.272Z,27.90
2023-04-16T18:51:05.839Z,24.52
2023-04-16T18:55:10.072Z,24.83
2023-04-16T18:57:11.541Z,24.88
2023-04-16T18:59:14.188Z,27.45
2023-04-16T19:01:17.002Z,26.90
2023-04-16T19:03:19.944Z,24.85
2023-04-16T19:05:21.570Z,23.33
2023-04-16T19:09:25.152Z,26.10
2023-04-16T19:11:28.970Z,23.70
2023-04-16T19:13:30.596Z,26.65
2023-04-16T19:15:33.796Z,25.35
2023-04-16T19:17:36.398Z,25.80
2023-04-16T19:21:40.678Z,29.10
2023-04-16T19:23:43.387Z,25.80
2023-04-16T19:25:48.131Z,25.08
2023-04-16T19:27:49.857Z,23.85
2023-04-16T19:29:51.315Z,24.42
2023-04-16T19:31:53.028Z,24.83
2023-04-16T19:33:54.578Z,26.83
2023-04-16T19:35:57.413Z,24.65
2023-04-16T19:37:59.824Z,25.42
2023-04-16T19:42:28.354Z,27.20
2023-04-16T19:44:29.880Z,28.80
2023-04-16T19:46:31.700Z,25.15
2023-04-16T19:48:33.173Z,25.65
2023-04-16T19:50:34.662Z,22.05
2023-04-16T19:52:37.478Z,25.63
2023-04-16T19:54:39.697Z,25.02
2023-04-16T19:56:41.164Z,24.80
2023-04-16T19:58:42.634Z,25.92
2023-04-16T20:00:45.294Z,24.70
2023-04-16T20:02:46.919Z,37.30
2023-04-16T20:04:48.577Z,25.40
2023-04-16T20:08:53.580Z,25.02
2023-04-16T20:10:56.177Z,25.25
2023-04-16T20:12:57.646Z,28.67
2023-04-16T20:14:59.385Z,37.28
2023-04-16T20:17:04.015Z,30.65
2023-04-16T20:19:08.009Z,31.83
2023-04-16T20:21:10.365Z,35.47
2023-04-16T20:25:14.677Z,28.92
2023-04-16T20:27:16.485Z,32.38
2023-04-16T20:29:17.970Z,29.70
2023-04-16T20:31:19.506Z,26.50
2023-04-16T20:33:21.324Z,32.05
2023-04-16T20:35:22.792Z,30.20
2023-04-16T20:37:24.262Z,29.83
2023-04-16T20:39:25.810Z,37.58
2023-04-16T20:41:28.676Z,37.10
2023-04-16T20:43:30.160Z,26.85
2023-04-16T20:45:31.694Z,29.70
2023-04-16T20:47:33.247Z,27.60
2023-04-16T20:51:37.997Z,25.58
2023-04-16T20:53:40.027Z,27.45
2023-04-16T20:55:42.909Z,27.90
2023-04-16T20:57:45.767Z,25.08
2023-04-16T20:59:47.297Z,28.95
2023-04-16T21:01:49.051Z,28.27
2023-04-16T21:03:50.935Z,29.10
2023-04-16T21:05:53.732Z,26.13
2023-04-16T21:07:55.906Z,27.10
2023-04-16T21:09:57.526Z,36.25
2023-04-16T21:14:01.941Z,33.47
2023-04-16T21:16:03.434Z,29.80
2023-04-16T21:18:05.249Z,22.17
2023-04-16T21:20:08.348Z,27.45
2023-04-16T21:22:09.882Z,22.67
2023-04-16T21:24:11.342Z,21.05
2023-04-16T21:26:13.104Z,19.98
2023-04-16T21:28:14.680Z,21.02
2023-04-16T21:30:18.462Z,19.80
2023-04-16T21:32:19.946Z,20.67
2023-04-16T21:34:21.518Z,19.23
2023-04-16T21:38:24.572Z,14.95
2023-04-16T21:40:26.599Z,18.17
2023-04-16T21:42:28.144Z,18.30
2023-04-16T21:46:32.492Z,17.33
2023-04-16T21:48:34.061Z,19.92
2023-04-16T21:52:37.159Z,16.98
2023-04-16T21:56:40.063Z,19.45
2023-04-16T22:00:43.117Z,19.33
2023-04-16T22:04:47.628Z,19.67
2023-04-16T22:08:50.429Z,22.05
2023-04-16T22:10:51.893Z,21.00
2023-04-16T22:12:53.366Z,22.45
2023-04-16T22:15:02.501Z,20.75
2023-04-16T22:17:04.881Z,25.45
2023-04-16T22:19:07.729Z,21.80
2023-04-16T22:21:09.264Z,24.80
2023-04-16T22:23:10.740Z,20.23
2023-04-16T22:25:12.366Z,23.67
2023-04-16T22:29:15.298Z,23.90
2023-04-16T22:31:16.796Z,23.00
2023-04-16T22:33:18.435Z,24.35
2023-04-16T22:35:21.433Z,23.27
2023-04-16T22:37:22.963Z,21.48
2023-04-16T22:39:24.503Z,22.42
2023-04-16T22:43:27.352Z,23.33
2023-04-16T22:45:29.417Z,25.63
2023-04-16T22:47:30.977Z,25.63
2023-04-16T22:51:35.160Z,22.58
2023-04-16T22:53:36.753Z,23.95
2023-04-16T22:55:38.240Z,23.00
2023-04-16T22:57:39.836Z,22.67
2023-04-16T23:01:42.688Z,20.70
2023-04-16T23:03:44.376Z,22.35
2023-04-16T23:05:45.918Z,25.02
2023-04-16T23:07:48.763Z,21.65
2023-04-16T23:09:50.280Z,19.15
2023-04-16T23:11:51.738Z,22.60
2023-04-16T23:13:53.213Z,22.95
2023-04-16T23:15:54.785Z,22.88
2023-04-16T23:17:56.399Z,22.98
2023-04-16T23:21:59.304Z,22.30
2023-04-16T23:24:02.200Z,23.48
2023-04-16T23:26:04.114Z,25.80
2023-04-16T23:28:05.591Z,21.90
2023-04-16T23:30:08.419Z,24.23
2023-04-16T23:32:09.918Z,22.75
2023-04-16T23:34:11.410Z,23.33
2023-04-16T23:36:13.164Z,22.08
2023-04-16T23:38:14.709Z,21.10
2023-04-16T23:42:18.923Z,24.88
2023-04-16T23:44:20.390Z,23.73
2023-04-16T23:46:21.942Z,25.20
2023-04-16T23:50:24.705Z,23.13
2023-04-16T23:52:26.239Z,23.13
2023-04-16T23:56:30.394Z,21.10
2023-04-16T23:58:31.849Z,24.80
